Time;durP1;ratioP1;P1;durP2;ratioP2;P2;SDS_P1;SDS_P2;PMS_P1;PMS_P2;Temp;Humidity;BMP_temperature;BMP_pressure;BME280_temperature;BME280_humidity;BME280_pressure;Samples;Min_cycle;Max_cycle;Signal;HPM_P1;HPM_P2
2024/02/09 00:01:48;;;;;;;17.70;13.70;;;;;;;5.58;73.92;97261.90;231605;199;151086;-71
2024/02/09 00:06:52;;;;;;;20.70;13.70;;;;;;;5.59;74.31;97261.88;231649;198;137304;-66
2024/02/09 00:11:56;;;;;;;14.90;11.30;;;;;;;5.58;74.20;97257.91;231736;199;139274;-66
2024/02/09 00:16:59;;;;;;;18.60;13.40;;;;;;;5.60;74.36;97252.63;231781;199;152160;-66
2024/02/09 00:22:04;;;;;;;18.80;13.20;;;;;;;5.66;74.37;97252.39;231705;202;138277;-66
2024/02/09 00:27:08;;;;;;;18.70;12.80;;;;;;;5.70;74.32;97256.14;231898;199;137714;-67
2024/02/09 00:32:14;;;;;;;19.10;12.90;;;;;;;5.73;74.10;97265.65;231686;198;151527;-67
2024/02/09 00:37:21;;;;;;;16.50;10.10;;;;;;;5.71;73.96;97274.91;231660;198;136616;-66
2024/02/09 00:42:25;;;;;;;13.50;9.10;;;;;;;5.67;73.61;97271.45;231761;198;138243;-69
2024/02/09 00:47:28;;;;;;;13.40;9.10;;;;;;;5.61;73.18;97267.91;231662;198;151108;-68
2024/02/09 00:52:32;;;;;;;14.70;9.50;;;;;;;5.54;72.96;97266.29;231608;205;136942;-67
2024/02/09 00:57:35;;;;;;;14.50;9.80;;;;;;;5.46;72.93;97265.45;231754;198;137427;-68
2024/02/09 01:02:39;;;;;;;15.40;9.80;;;;;;;5.39;73.04;97270.84;231864;199;152690;-68
2024/02/09 01:07:43;;;;;;;13.40;8.90;;;;;;;5.34;73.13;97268.90;231685;199;137355;-68
2024/02/09 02:44:46;;;;;;;7.30;5.90;;;;;;;5.42;73.10;97237.88;231880;205;136567;-68
2024/02/09 03:05:57;;;;;;;7.70;5.90;;;;;;;5.28;73.31;97247.35;231666;199;136697;-71
2024/02/09 03:11:03;;;;;;;6.50;4.90;;;;;;;5.27;73.54;97242.29;231573;199;151361;-68
2024/02/09 03:16:07;;;;;;;7.90;5.30;;;;;;;5.33;73.42;97238.89;230903;202;138675;-68
2024/02/09 03:21:19;;;;;;;6.40;5.20;;;;;;;5.43;73.37;97233.41;231833;199;137413;-69
2024/02/09 03:26:23;;;;;;;8.50;5.30;;;;;;;5.48;73.07;97238.23;231716;199;152403;-70
2024/02/09 03:31:30;;;;;;;8.90;5.60;;;;;;;5.49;73.11;97235.45;231698;199;138183;-68
2024/02/09 03:36:34;;;;;;;8.20;5.50;;;;;;;5.56;72.77;97232.89;231702;202;137327;-69
2024/02/09 03:41:37;;;;;;;8.10;5.90;;;;;;;5.46;72.72;97234.98;231706;198;151958;-70
2024/02/09 03:46:41;;;;;;;7.20;6.10;;;;;;;5.39;73.01;97238.31;231755;198;137135;-69
2024/02/09 03:51:44;;;;;;;9.60;6.30;;;;;;;5.33;73.19;97233.96;231715;205;137041;-68
2024/02/09 03:56:47;;;;;;;7.30;5.90;;;;;;;5.30;73.33;97237.83;231837;205;153264;-67
2024/02/09 04:01:50;;;;;;;9.30;6.40;;;;;;;5.27;73.55;97233.16;231638;198;137102;-70
2024/02/09 04:06:53;;;;;;;6.80;5.20;;;;;;;5.26;73.55;97229.38;231744;198;136839;-70
2024/02/09 04:11:57;;;;;;;7.60;6.10;;;;;;;5.29;73.52;97230.90;231682;199;152877;-68
2024/02/09 04:17:00;;;;;;;7.50;6.30;;;;;;;5.35;73.54;97229.59;231602;199;137451;-69
2024/02/09 04:22:05;;;;;;;7.50;6.00;;;;;;;5.41;73.44;97229.55;231672;202;136554;-69
2024/02/09 04:27:08;;;;;;;8.60;5.80;;;;;;;5.42;73.48;97228.55;231769;203;151458;-70
2024/02/09 04:32:11;;;;;;;7.80;6.20;;;;;;;5.47;73.18;97225.26;231660;198;136945;-70
2024/02/09 04:37:15;;;;;;;7.70;6.10;;;;;;;5.46;73.32;97226.02;231696;198;136461;-67
2024/02/09 04:42:20;;;;;;;9.10;6.60;;;;;;;5.45;73.28;97227.11;231730;205;152487;-70
2024/02/09 04:47:23;;;;;;;7.50;5.90;;;;;;;5.45;73.27;97221.30;231431;203;137263;-67
2024/02/09 04:52:27;;;;;;;7.30;5.50;;;;;;;5.48;73.37;97217.27;231915;205;136579;-67
2024/02/09 04:57:31;;;;;;;7.30;6.20;;;;;;;5.50;73.37;97209.38;231713;202;151542;-67
2024/02/09 05:02:36;;;;;;;7.80;5.70;;;;;;;5.57;73.39;97197.96;231790;198;137131;-67
2024/02/09 05:07:39;;;;;;;7.80;5.80;;;;;;;5.61;73.08;97186.09;231721;199;138158;-69
2024/02/09 05:12:43;;;;;;;8.70;6.70;;;;;;;5.65;73.15;97183.46;231728;205;151750;-67
2024/02/09 05:17:46;;;;;;;7.60;6.20;;;;;;;5.71;72.98;97183.61;231678;197;137530;-71
2024/02/09 05:22:49;;;;;;;7.30;6.10;;;;;;;5.71;72.89;97190.64;231736;199;137253;-70
2024/02/09 05:27:53;;;;;;;7.70;6.40;;;;;;;5.71;72.92;97180.25;231724;198;151956;-70
2024/02/09 05:32:57;;;;;;;7.80;6.20;;;;;;;5.69;72.95;97187.47;231846;199;136753;-71
2024/02/09 05:38:00;;;;;;;8.40;6.50;;;;;;;5.66;72.95;97190.84;231726;205;137741;-71
2024/02/09 05:43:04;;;;;;;8.00;6.20;;;;;;;5.62;73.18;97188.98;231712;198;151124;-68
2024/02/09 05:48:09;;;;;;;7.90;6.40;;;;;;;5.64;73.08;97187.98;231609;203;136904;-69
2024/02/09 05:53:13;;;;;;;8.40;7.30;;;;;;;5.70;72.96;97187.70;231681;199;137132;-70
2024/02/09 05:58:18;;;;;;;11.80;8.60;;;;;;;5.76;72.80;97189.06;231718;197;151462;-67
2024/02/09 06:03:21;;;;;;;13.30;9.20;;;;;;;5.74;72.79;97194.96;231835;199;137553;-68
2024/02/09 06:08:24;;;;;;;13.50;10.70;;;;;;;5.75;72.72;97196.70;231706;199;137121;-68
2024/02/09 06:13:28;;;;;;;15.50;11.10;;;;;;;5.74;72.95;97191.83;231721;198;152585;-69
2024/02/09 06:18:32;;;;;;;19.00;12.80;;;;;;;5.75;72.99;97193.87;231666;199;136771;-69
2024/02/09 06:23:39;;;;;;;20.20;13.70;;;;;;;5.77;72.88;97202.16;231688;202;137468;-68
2024/02/09 06:28:46;;;;;;;25.70;15.60;;;;;;;5.74;72.82;97201.89;231680;205;151209;-69
2024/02/09 06:33:54;;;;;;;23.50;15.40;;;;;;;5.71;73.02;97206.14;231687;199;137476;-67
2024/02/09 06:38:59;;;;;;;25.00;15.70;;;;;;;5.71;73.21;97207.34;231811;202;137431;-68
2024/02/09 06:44:03;;;;;;;24.90;16.50;;;;;;;5.80;73.27;97205.81;231724;202;152159;-69
2024/02/09 06:49:06;;;;;;;27.70;17.10;;;;;;;5.90;72.89;97207.58;231632;202;138576;-69
2024/02/09 06:54:10;;;;;;;26.20;17.40;;;;;;;5.99;72.78;97203.08;231563;199;137496;-69
2024/02/09 06:59:13;;;;;;;28.60;17.40;;;;;;;6.02;72.70;97210.63;231655;198;151558;-67
2024/02/09 07:04:18;;;;;;;25.10;16.60;;;;;;;5.99;72.59;97217.17;231711;198;137652;-66
2024/02/09 07:09:21;;;;;;;28.90;16.20;;;;;;;6.00;72.73;97220.77;231845;199;138070;-67
2024/02/09 07:14:38;;;;;;;25.40;16.30;;;;;;;6.04;72.64;97217.35;231792;202;152070;-67
2024/02/09 07:19:41;;;;;;;26.00;16.60;;;;;;;6.07;72.67;97213.54;231666;199;137474;-69
2024/02/09 07:24:44;;;;;;;43.10;26.00;;;;;;;6.12;72.93;97213.90;231580;200;139606;-67
2024/02/09 07:29:48;;;;;;;33.10;19.10;;;;;;;6.16;72.94;97214.30;231687;203;152933;-67
2024/02/09 07:34:52;;;;;;;242.10;172.20;;;;;;;6.15;72.96;97215.42;231671;199;139975;-66
2024/02/09 07:39:56;;;;;;;43.60;26.70;;;;;;;6.21;73.19;97212.02;231690;200;137984;-66
2024/02/09 07:44:59;;;;;;;24.70;15.80;;;;;;;6.28;73.05;97210.46;231833;198;152801;-66
2024/02/09 07:50:09;;;;;;;120.50;78.70;;;;;;;6.31;73.06;97208.41;231651;198;236355;-66
2024/02/09 07:55:13;;;;;;;26.60;16.80;;;;;;;6.37;73.02;97216.48;231631;203;139880;-67
2024/02/09 08:00:19;;;;;;;27.40;16.80;;;;;;;6.40;72.84;97221.70;231672;198;151326;-66
2024/02/09 08:05:24;;;;;;;25.70;15.90;;;;;;;6.35;72.63;97225.05;231601;199;138562;-66
2024/02/09 08:10:27;;;;;;;28.90;16.30;;;;;;;6.34;72.69;97222.68;231545;199;138534;-66
2024/02/09 08:15:31;;;;;;;27.20;17.10;;;;;;;6.30;72.83;97221.73;231796;199;151830;-66
2024/02/09 08:20:36;;;;;;;26.10;16.50;;;;;;;6.28;72.95;97214.68;231566;203;136815;-65
2024/02/09 08:25:40;;;;;;;80.00;53.20;;;;;;;6.36;74.00;97216.88;231673;198;137201;-63
2024/02/09 08:30:43;;;;;;;28.80;17.40;;;;;;;6.59;73.44;97212.73;231619;203;151558;-65
2024/02/09 08:35:46;;;;;;;26.70;17.60;;;;;;;6.62;72.94;97210.70;231608;202;137212;-65
2024/02/09 08:40:50;;;;;;;26.70;17.30;;;;;;;6.62;72.78;97209.09;231618;205;140093;-65
2024/02/09 08:45:53;;;;;;;30.90;17.80;;;;;;;6.67;72.76;97203.63;231688;199;152066;-64
2024/02/09 08:50:56;;;;;;;30.50;18.60;;;;;;;6.71;72.58;97209.36;231757;198;136835;-65
2024/02/09 08:56:01;;;;;;;137.40;90.70;;;;;;;6.72;73.11;97207.83;231687;199;137171;-65
2024/02/09 09:01:04;;;;;;;38.60;20.60;;;;;;;6.81;72.97;97209.45;231472;205;151411;-65
2024/02/09 09:06:08;;;;;;;201.00;120.70;;;;;;;6.77;72.87;97211.66;231528;198;137489;-67
2024/02/09 09:11:12;;;;;;;44.20;20.20;;;;;;;6.79;72.88;97214.38;231637;202;137080;-64
2024/02/09 09:16:16;;;;;;;41.50;19.40;;;;;;;6.87;72.99;97219.21;231650;199;152748;-65
2024/02/09 09:21:19;;;;;;;43.20;22.30;;;;;;;7.01;72.84;97213.58;231739;202;137974;-64
2024/02/09 09:26:22;;;;;;;44.70;24.10;;;;;;;7.17;72.45;97206.70;231648;203;137456;-66
2024/02/09 09:31:31;;;;;;;119.10;67.10;;;;;;;7.16;72.91;97197.41;231585;198;151087;-64
2024/02/09 09:36:35;;;;;;;43.20;21.80;;;;;;;7.20;73.12;97193.58;231561;199;137719;-64
2024/02/09 09:41:41;;;;;;;33.90;21.60;;;;;;;7.17;72.57;97193.08;231596;205;138153;-66
2024/02/09 09:46:45;;;;;;;33.00;20.80;;;;;;;7.12;72.41;97194.58;231603;199;153159;-66
2024/02/09 09:51:57;;;;;;;37.10;22.50;;;;;;;7.10;72.53;97188.56;231615;198;138038;-62
2024/02/09 09:57:02;;;;;;;32.60;21.00;;;;;;;7.08;72.54;97184.77;231582;204;252742;-62
2024/02/09 10:02:07;;;;;;;34.30;20.90;;;;;;;7.08;72.76;97177.73;231519;202;151729;-62
2024/02/09 10:07:15;;;;;;;31.10;20.00;;;;;;;7.12;73.12;97167.56;231517;202;137343;-62
2024/02/09 10:12:22;;;;;;;35.30;21.50;;;;;;;7.22;73.21;97167.85;231575;199;137632;-62
2024/02/09 10:17:28;;;;;;;32.00;21.40;;;;;;;7.33;73.13;97163.26;231411;205;151230;-59
2024/02/09 10:22:31;;;;;;;31.90;22.00;;;;;;;7.42;72.98;97153.91;231621;202;137508;-59
2024/02/09 10:27:35;;;;;;;31.60;21.10;;;;;;;7.48;72.97;97156.23;231747;199;137068;-57
2024/02/09 10:32:41;;;;;;;34.30;21.80;;;;;;;7.58;72.99;97154.76;231677;198;151702;-60
2024/02/09 10:37:45;;;;;;;31.80;21.40;;;;;;;7.67;72.87;97142.55;231636;199;136985;-55
2024/02/09 10:42:50;;;;;;;32.70;21.80;;;;;;;7.74;73.06;97130.88;231622;198;140188;-58
2024/02/09 10:47:55;;;;;;;29.50;20.00;;;;;;;7.80;72.95;97133.02;231550;199;151438;-57
2024/02/09 10:53:10;;;;;;;31.40;20.70;;;;;;;7.86;72.75;97126.75;231592;199;136853;-59
2024/02/09 10:58:15;;;;;;;29.60;18.60;;;;;;;7.92;72.79;97123.02;231372;202;137975;-59
2024/02/09 11:03:19;;;;;;;26.80;19.10;;;;;;;8.03;72.41;97118.60;231759;198;152719;-59
2024/02/09 11:08:24;;;;;;;27.80;19.50;;;;;;;8.11;72.54;97108.42;231638;199;137972;-60
2024/02/09 11:13:33;;;;;;;32.30;20.00;;;;;;;8.15;72.16;97102.73;231565;205;137478;-59
2024/02/09 11:18:38;;;;;;;27.00;18.20;;;;;;;8.18;72.02;97096.13;231550;203;151561;-60
2024/02/09 11:58:55;;;;;;;29.10;20.80;;;;;;;8.85;73.14;97047.52;229374;215;708153;-58
2024/02/09 12:03:59;;;;;;;28.20;20.30;;;;;;;8.83;71.08;97051.64;230888;201;135953;-58
2024/02/09 12:09:06;;;;;;;29.30;20.30;;;;;;;8.79;71.32;97051.30;231019;202;136890;-58
2024/02/09 12:14:12;;;;;;;32.00;21.00;;;;;;;8.76;71.41;97045.65;230930;202;147852;-58
2024/02/09 12:19:15;;;;;;;33.20;21.40;;;;;;;8.74;71.24;97046.91;230978;202;137138;-58
2024/02/09 12:24:19;;;;;;;33.30;21.30;;;;;;;8.73;71.42;97047.52;231046;206;137444;-59
2024/02/09 12:29:24;;;;;;;28.60;19.60;;;;;;;8.75;71.76;97055.23;231065;201;147978;-58
2024/02/09 12:34:28;;;;;;;34.00;21.60;;;;;;;8.78;71.42;97065.29;231111;205;138065;-56
2024/02/09 12:39:33;;;;;;;32.00;22.00;;;;;;;8.79;71.35;97059.23;231179;203;138189;-58
2024/02/09 12:44:44;;;;;;;33.40;21.60;;;;;;;8.86;71.62;97051.84;231043;201;147649;-57
2024/02/09 12:49:49;;;;;;;32.30;21.00;;;;;;;8.91;71.53;97044.35;231359;200;136552;-56
2024/02/09 12:54:56;;;;;;;30.20;21.30;;;;;;;8.91;71.46;97054.09;231031;201;136889;-58
2024/02/09 12:59:59;;;;;;;27.00;19.50;;;;;;;8.88;71.60;97051.20;231147;205;150767;-57
2024/02/09 13:05:03;;;;;;;29.60;19.70;;;;;;;8.83;71.74;97047.50;231038;204;137209;-58
2024/02/09 13:10:07;;;;;;;30.60;19.10;;;;;;;8.81;72.06;97043.50;231091;201;136759;-58
2024/02/09 13:15:11;;;;;;;28.80;18.50;;;;;;;8.79;72.31;97040.31;231203;201;150501;-59
2024/02/09 13:20:18;;;;;;;24.90;18.30;;;;;;;8.74;72.34;97036.05;231589;199;137206;-58
2024/02/09 13:25:22;;;;;;;24.80;17.00;;;;;;;8.75;72.58;97042.95;231657;200;138136;-58
2024/02/09 13:30:28;;;;;;;25.30;18.20;;;;;;;8.83;72.61;97050.88;231597;199;149582;-57
2024/02/09 13:35:31;;;;;;;25.80;19.00;;;;;;;8.92;72.70;97049.73;231612;199;138727;-58
2024/02/09 13:40:35;;;;;;;23.10;17.60;;;;;;;9.01;72.45;97048.08;231679;200;136895;-58
2024/02/09 13:45:39;;;;;;;25.60;17.80;;;;;;;9.02;72.27;97049.61;231710;199;150012;-58
2024/02/09 13:50:42;;;;;;;23.60;17.60;;;;;;;8.99;72.26;97053.59;231577;200;136245;-57
2024/02/09 13:55:46;;;;;;;25.70;18.10;;;;;;;8.95;72.27;97056.87;231685;200;137295;-59
2024/02/09 14:00:49;;;;;;;25.60;17.40;;;;;;;8.94;72.42;97055.56;231590;207;149735;-58
2024/02/09 14:05:53;;;;;;;28.40;18.90;;;;;;;8.89;72.50;97046.70;231488;199;136568;-58
2024/02/09 14:10:56;;;;;;;24.20;17.90;;;;;;;8.87;72.74;97043.67;231662;203;136493;-56
2024/02/09 14:16:00;;;;;;;23.20;16.50;;;;;;;8.90;72.90;97048.36;231641;199;149564;-58
2024/02/09 14:21:05;;;;;;;23.30;17.10;;;;;;;8.97;72.71;97042.23;231637;203;139105;-58
2024/02/09 14:26:08;;;;;;;24.80;18.30;;;;;;;9.05;72.87;97037.14;231653;199;137166;-58
2024/02/09 14:31:11;;;;;;;25.90;19.30;;;;;;;9.13;72.60;97035.20;231534;206;150229;-56
2024/02/09 14:36:17;;;;;;;27.10;18.50;;;;;;;9.15;72.55;97028.41;231635;199;137910;-57
2024/02/09 14:41:21;;;;;;;26.70;19.50;;;;;;;9.15;72.59;97025.30;231643;199;137486;-58
2024/02/09 14:46:25;;;;;;;27.30;19.20;;;;;;;9.11;72.63;97025.42;231632;199;149377;-58
2024/02/09 14:51:29;;;;;;;25.50;19.50;;;;;;;9.09;72.55;97021.92;231872;198;137272;-58
2024/02/09 14:56:32;;;;;;;29.10;21.00;;;;;;;9.04;72.59;97021.63;231542;205;137489;-58
2024/02/09 15:01:49;;;;;;;26.90;19.50;;;;;;;8.99;72.95;97011.98;231741;198;151633;-57
2024/02/09 15:06:53;;;;;;;25.90;19.20;;;;;;;8.95;72.98;97013.42;231612;202;137441;-56
2024/02/09 15:11:59;;;;;;;30.50;20.20;;;;;;;8.97;72.96;97004.25;231623;198;137012;-57
2024/02/09 15:17:03;;;;;;;30.80;20.90;;;;;;;8.98;72.77;97002.91;231698;198;150010;-58
2024/02/09 15:22:09;;;;;;;31.50;21.50;;;;;;;8.96;72.78;97014.02;231605;198;137186;-58
2024/02/09 15:27:13;;;;;;;29.10;20.10;;;;;;;8.92;73.01;97017.52;231793;199;138121;-57
2024/02/09 15:32:17;;;;;;;31.20;21.60;;;;;;;8.89;73.01;97023.69;231655;198;149448;-58
2024/02/09 15:37:21;;;;;;;30.20;20.80;;;;;;;8.84;73.04;97025.15;231638;198;137117;-59
2024/02/09 15:42:24;;;;;;;28.80;21.10;;;;;;;8.82;73.10;97024.86;231699;198;137535;-58
2024/02/09 15:47:27;;;;;;;31.20;19.70;;;;;;;8.73;73.28;97025.58;231693;205;150097;-58
2024/02/09 15:52:32;;;;;;;29.90;19.50;;;;;;;8.72;73.31;97025.12;231635;198;137014;-58
2024/02/09 15:57:36;;;;;;;28.90;21.10;;;;;;;8.72;73.32;97023.76;231837;206;137586;-57
2024/02/09 16:02:39;;;;;;;29.40;20.20;;;;;;;8.70;73.35;97023.86;231753;205;149431;-62
2024/02/09 16:07:45;;;;;;;29.90;20.60;;;;;;;8.66;73.20;97019.98;231647;202;137165;-57
2024/02/09 16:12:50;;;;;;;31.20;21.70;;;;;;;8.60;73.30;97016.47;231692;198;138993;-58
2024/02/09 16:17:56;;;;;;;34.40;22.10;;;;;;;8.52;73.45;97013.60;231623;202;150253;-59
2024/02/09 16:22:59;;;;;;;32.10;20.90;;;;;;;8.46;73.54;97018.73;231653;206;139745;-61
2024/02/09 16:28:02;;;;;;;30.90;19.80;;;;;;;8.41;75.51;97015.09;231645;198;137598;-52
2024/02/09 16:33:06;;;;;;;30.30;20.70;;;;;;;9.70;82.23;97011.27;231747;198;150647;-60
2024/02/09 16:38:09;;;;;;;31.70;20.80;;;;;;;9.53;72.90;97018.31;231657;198;138520;-64
2024/02/09 16:43:18;;;;;;;31.80;22.60;;;;;;;9.18;72.17;97029.43;231585;198;137052;-60
2024/02/09 16:48:22;;;;;;;30.30;21.40;;;;;;;8.92;72.26;97038.07;231631;202;150280;-61
2024/02/09 16:53:26;;;;;;;31.50;22.10;;;;;;;8.72;72.54;97037.35;231671;205;136447;-60
2024/02/09 16:58:30;;;;;;;30.80;22.10;;;;;;;8.56;72.61;97042.47;231727;198;137039;-59
2024/02/09 17:03:35;;;;;;;30.70;21.60;;;;;;;8.43;72.95;97048.86;231852;198;150344;-59
2024/02/09 17:08:38;;;;;;;32.50;22.70;;;;;;;8.30;73.09;97055.98;231653;202;137542;-60
2024/02/09 17:13:41;;;;;;;32.70;22.60;;;;;;;8.17;73.43;97052.30;231724;199;137317;-60
2024/02/09 17:18:45;;;;;;;33.10;21.80;;;;;;;8.10;73.80;97060.42;231705;198;149761;-59
2024/02/09 17:23:51;;;;;;;29.90;21.00;;;;;;;8.08;74.17;97052.29;231097;202;138088;-60
2024/02/09 17:28:54;;;;;;;38.10;23.70;;;;;;;8.13;74.21;97050.13;231719;198;137724;-61
2024/02/09 17:33:57;;;;;;;32.80;22.40;;;;;;;8.14;74.15;97057.84;231711;198;150809;-62
2024/02/09 17:39:04;;;;;;;33.00;23.40;;;;;;;8.13;74.45;97061.79;231803;198;136627;-59
2024/02/09 17:44:08;;;;;;;34.40;24.40;;;;;;;8.11;74.52;97056.30;231711;199;137074;-61
2024/02/09 17:49:15;;;;;;;37.30;24.50;;;;;;;8.06;74.53;97046.45;231768;202;150275;-60
2024/02/09 17:54:19;;;;;;;38.00;26.10;;;;;;;8.01;74.59;97035.21;231635;198;137418;-61
2024/02/09 17:59:22;;;;;;;38.70;24.50;;;;;;;7.97;74.47;97035.56;231611;203;137613;-61
2024/02/09 18:04:26;;;;;;;36.60;25.20;;;;;;;7.93;74.43;97042.96;231622;198;149312;-61
2024/02/09 18:09:30;;;;;;;33.60;24.40;;;;;;;7.93;74.37;97034.54;231739;198;138252;-59
2024/02/09 18:14:33;;;;;;;42.40;26.80;;;;;;;7.94;74.33;97026.65;231683;198;137211;-61
2024/02/09 18:19:37;;;;;;;38.20;26.80;;;;;;;8.03;74.82;97015.80;231642;198;151969;-60
2024/02/09 18:24:43;;;;;;;38.60;27.10;;;;;;;8.03;74.29;97020.20;231504;199;136905;-66
2024/02/09 18:29:46;;;;;;;39.60;27.60;;;;;;;7.99;74.02;97028.84;231680;199;137367;-64
2024/02/09 18:34:50;;;;;;;43.60;26.30;;;;;;;7.90;74.10;97031.23;231607;198;150771;-63
2024/02/09 18:39:54;;;;;;;42.70;27.30;;;;;;;7.82;74.05;97032.96;231610;199;138973;-62
2024/02/09 18:44:57;;;;;;;39.30;26.60;;;;;;;7.72;74.26;97041.56;231621;199;138688;-62
2024/02/09 18:50:01;;;;;;;38.10;25.70;;;;;;;7.61;74.00;97039.77;231588;199;150899;-62
2024/02/09 18:55:04;;;;;;;36.30;25.00;;;;;;;7.52;74.17;97043.54;231519;202;137486;-61
2024/02/09 19:00:09;;;;;;;36.40;26.10;;;;;;;7.53;74.08;97041.29;231620;198;137505;-63
2024/02/09 19:05:13;;;;;;;37.70;26.20;;;;;;;7.53;74.17;97040.11;231506;199;150405;-66
2024/02/09 19:10:18;;;;;;;38.10;25.50;;;;;;;7.48;74.09;97024.08;231589;205;137731;-62
2024/02/09 19:15:21;;;;;;;39.40;26.70;;;;;;;7.45;74.08;97017.51;231663;199;140356;-63
2024/02/09 19:20:25;;;;;;;40.90;27.20;;;;;;;7.41;74.11;97015.50;231613;198;149484;-62
2024/02/09 19:25:28;;;;;;;45.60;28.90;;;;;;;7.35;74.20;97017.20;231562;199;137637;-64
2024/02/09 19:30:31;;;;;;;39.10;27.00;;;;;;;7.31;74.44;97017.39;231501;206;138188;-63
2024/02/09 19:35:34;;;;;;;38.30;25.80;;;;;;;7.25;74.34;97012.17;231633;202;149320;-63
2024/02/09 19:40:38;;;;;;;41.10;24.70;;;;;;;7.22;74.43;97008.02;231618;199;137939;-63
2024/02/09 19:45:42;;;;;;;43.00;28.10;;;;;;;7.27;74.59;97009.94;231772;206;137812;-62
2024/02/09 19:50:49;;;;;;;52.50;33.40;;;;;;;7.32;74.25;97013.73;231564;198;149641;-65
2024/02/09 19:55:53;;;;;;;49.60;29.70;;;;;;;7.31;74.30;97010.17;231589;199;136893;-62
2024/02/09 20:00:56;;;;;;;45.60;30.30;;;;;;;7.29;74.21;97005.73;231494;199;137046;-63
2024/02/09 20:06:02;;;;;;;45.90;30.20;;;;;;;7.30;74.36;97006.48;231655;199;149613;-62
2024/02/09 20:11:06;;;;;;;;;;;;;;;7.28;74.35;97003.18;231620;198;137411;-62
2024/02/09 20:16:09;;;;;;;50.20;30.80;;;;;;;7.26;74.52;97001.69;231730;199;133781;-61
2024/02/09 20:21:13;;;;;;;48.00;31.60;;;;;;;7.21;74.06;97006.59;231740;202;151382;-62
2024/02/09 20:26:17;;;;;;;48.10;29.10;;;;;;;7.12;74.12;97008.48;232097;204;137762;-61
2024/02/09 20:31:20;;;;;;;44.00;29.60;;;;;;;7.04;74.26;97005.59;232146;204;138518;-60
2024/02/09 20:36:24;;;;;;;42.20;28.20;;;;;;;7.04;74.36;96998.40;232008;204;152504;-62
2024/02/09 20:41:27;;;;;;;47.30;28.80;;;;;;;7.07;74.20;96994.31;232137;204;141028;-62
2024/02/09 20:46:30;;;;;;;42.10;28.80;;;;;;;7.05;73.92;97000.39;232042;198;137853;-62
2024/02/09 20:51:38;;;;;;;44.50;29.80;;;;;;;7.02;73.80;96998.55;232187;204;155298;-60
2024/02/09 20:56:42;;;;;;;150.80;95.80;;;;;;;6.98;73.97;96999.07;231853;204;136996;-61
2024/02/09 21:01:46;;;;;;;54.40;33.20;;;;;;;7.05;74.88;97005.53;232125;204;137534;-61
2024/02/09 21:06:50;;;;;;;52.00;32.90;;;;;;;7.02;73.81;97002.23;232001;197;151271;-62
2024/02/09 21:11:53;;;;;;;49.20;31.40;;;;;;;6.98;73.87;96993.97;231809;201;137806;-61
2024/02/09 21:16:57;;;;;;;50.10;31.60;;;;;;;6.94;73.80;96996.91;231938;198;140495;-62
2024/02/09 21:22:02;;;;;;;44.50;30.80;;;;;;;6.90;73.81;97002.57;231777;197;151452;-63
2024/02/09 21:27:06;;;;;;;49.60;33.20;;;;;;;6.93;73.65;97002.13;232119;196;138107;-63
2024/02/09 21:32:12;;;;;;;52.10;34.10;;;;;;;6.97;73.30;97001.48;232005;204;137827;-63
2024/02/09 21:37:16;;;;;;;53.80;36.00;;;;;;;6.93;73.14;96994.72;231972;197;151198;-62
2024/02/09 21:42:19;;;;;;;52.50;34.70;;;;;;;6.89;73.12;96999.59;231898;201;137846;-63
2024/02/09 21:47:27;;;;;;;57.50;37.50;;;;;;;6.87;73.14;97004.69;232109;198;137553;-63
2024/02/09 21:52:32;;;;;;;58.40;38.10;;;;;;;6.82;73.18;97002.11;232065;204;151437;-63
2024/02/09 21:57:36;;;;;;;61.30;41.00;;;;;;;6.77;73.22;96997.02;232079;198;138555;-63
2024/02/09 22:02:39;;;;;;;63.70;41.40;;;;;;;6.74;73.31;96993.88;232010;204;136811;-61
2024/02/09 22:07:48;;;;;;;253.90;150.70;;;;;;;6.67;74.68;97000.83;232032;201;151324;-64
2024/02/09 22:12:54;;;;;;;57.90;39.30;;;;;;;6.93;75.16;97005.97;231911;198;138330;-62
2024/02/09 22:17:57;;;;;;;59.30;39.30;;;;;;;7.05;73.81;97010.10;231907;204;137031;-62
2024/02/09 22:23:02;;;;;;;59.90;39.50;;;;;;;6.96;73.52;97004.14;232121;204;153104;-62
2024/02/09 22:28:05;;;;;;;57.90;39.10;;;;;;;6.88;73.79;97004.27;232231;201;136899;-60
2024/02/09 22:33:09;;;;;;;64.60;39.00;;;;;;;6.78;74.15;96999.61;232284;204;137129;-61
2024/02/09 22:38:15;;;;;;;55.40;37.10;;;;;;;6.73;74.47;96994.92;232175;201;151389;-61
2024/02/09 22:43:18;;;;;;;60.30;39.20;;;;;;;6.70;74.67;96991.77;232116;204;136632;-59
2024/02/09 22:48:21;;;;;;;274.30;205.40;;;;;;;6.64;74.71;96994.73;232108;204;137490;-62
2024/02/09 22:53:25;;;;;;;98.00;60.10;;;;;;;6.67;76.35;96993.40;232076;197;152400;-62
2024/02/09 22:58:30;;;;;;;56.10;36.80;;;;;;;6.81;75.85;96988.64;232152;204;138568;-62
2024/02/09 23:03:33;;;;;;;57.70;37.30;;;;;;;6.81;75.28;96989.29;232100;198;137530;-62
2024/02/09 23:08:37;;;;;;;60.90;39.00;;;;;;;6.86;75.34;96985.17;232074;204;152296;-62
2024/02/09 23:13:40;;;;;;;56.30;37.60;;;;;;;6.91;75.29;96970.42;232142;201;137397;-62
2024/02/09 23:18:44;;;;;;;58.50;38.30;;;;;;;6.88;75.37;96966.03;231842;198;137355;-62
2024/02/09 23:23:48;;;;;;;55.60;37.30;;;;;;;6.84;75.50;96959.83;232052;204;151688;-61
2024/02/09 23:28:52;;;;;;;59.60;37.20;;;;;;;6.80;75.78;96964.20;231846;204;137376;-63
2024/02/09 23:33:58;;;;;;;57.40;36.60;;;;;;;6.82;76.04;96963.35;232092;197;136764;-62
2024/02/09 23:39:05;;;;;;;58.30;36.00;;;;;;;6.80;76.26;96969.69;232039;201;152739;-62
2024/02/09 23:44:08;;;;;;;56.80;34.00;;;;;;;6.84;76.41;96969.14;231931;197;138179;-62
2024/02/09 23:49:14;;;;;;;57.60;36.70;;;;;;;6.91;76.56;96967.90;232063;200;138050;-62
2024/02/09 23:54:18;;;;;;;60.50;36.60;;;;;;;7.02;76.64;96971.60;231997;198;151561;-62
2024/02/09 23:59:22;;;;;;;57.20;36.40;;;;;;;7.06;76.45;96974.63;232168;204;138919;-62
